Time;durP1;ratioP1;P1;durP2;ratioP2;P2;SDS_P1;SDS_P2;PMS_P1;PMS_P2;Temp;Humidity;BMP_temperature;BMP_pressure;BME280_temperature;BME280_humidity;BME280_pressure;Samples;Min_cycle;Max_cycle;Signal;HPM_P1;HPM_P2
2023/10/22 00:00:16;;;;;;;11.55;4.62;;;;;;;16.45;100.00;97602.47;4485165;32;20161;-73
2023/10/22 00:02:44;;;;;;;13.20;4.93;;;;;;;16.45;100.00;97588.44;4484968;32;20092;-73
2023/10/22 00:05:12;;;;;;;10.23;4.53;;;;;;;16.37;100.00;97570.97;4484938;31;20091;-73
2023/10/22 00:07:40;;;;;;;12.27;4.65;;;;;;;16.37;100.00;97570.97;4484850;31;20489;-73
2023/10/22 00:10:07;;;;;;;15.00;5.25;;;;;;;16.49;100.00;97574.63;4484957;32;20092;-73
2023/10/22 00:12:35;;;;;;;11.52;4.50;;;;;;;16.46;100.00;97561.00;4484987;32;20092;-73
2023/10/22 00:15:02;;;;;;;15.00;4.60;;;;;;;16.54;100.00;97567.91;4485004;32;20182;-73
2023/10/22 00:17:30;;;;;;;14.68;4.18;;;;;;;16.55;100.00;97577.47;4469441;32;20166;-74
2023/10/22 00:19:58;;;;;;;11.65;4.07;;;;;;;16.57;100.00;97576.25;4469424;32;20093;-73
2023/10/22 00:22:25;;;;;;;13.20;4.35;;;;;;;16.58;100.00;97571.75;4469038;32;20123;-73
2023/10/22 00:24:53;;;;;;;11.68;4.50;;;;;;;16.58;100.00;97571.75;4469317;32;20130;-73
2023/10/22 00:27:21;;;;;;;10.52;4.18;;;;;;;16.53;100.00;97574.22;4469081;32;20108;-73
2023/10/22 00:29:48;;;;;;;12.13;4.65;;;;;;;16.49;100.00;97574.63;4469206;32;20567;-73
2023/10/22 00:32:16;;;;;;;9.40;3.92;;;;;;;16.51;100.00;97577.06;4469138;32;20092;-74
2023/10/22 00:34:44;;;;;;;8.02;4.07;;;;;;;16.48;100.00;97578.28;4469072;32;20177;-73
2023/10/22 00:37:11;;;;;;;16.08;4.95;;;;;;;16.50;100.00;97578.06;4469135;32;20096;-74
2023/10/22 00:39:39;;;;;;;10.48;4.65;;;;;;;16.50;100.00;97581.53;4469242;32;20470;-74
2023/10/22 00:42:06;;;;;;;17.23;5.60;;;;;;;16.52;100.00;97585.78;4469009;32;20093;-73
2023/10/22 00:44:35;;;;;;;21.73;4.85;;;;;;;16.65;100.00;97577.84;4469036;32;20465;-73
2023/10/22 00:47:04;;;;;;;11.95;4.50;;;;;;;16.51;100.00;97579.72;4468961;32;20131;-73
2023/10/22 00:49:35;;;;;;;9.30;3.97;;;;;;;16.62;100.00;97573.81;4468219;32;20115;-73
2023/10/22 00:52:03;;;;;;;11.98;4.57;;;;;;;16.62;100.00;97576.47;4467966;32;20097;-73
2023/10/22 00:54:31;;;;;;;9.88;4.82;;;;;;;16.68;100.00;97574.81;4468188;32;20114;-73
2023/10/22 00:56:59;;;;;;;13.23;4.75;;;;;;;16.72;100.00;97572.56;4467595;32;20101;-73
2023/10/22 00:59:26;;;;;;;15.90;4.22;;;;;;;16.61;100.00;97571.38;4468964;32;20119;-74
2023/10/22 01:01:54;;;;;;;10.57;4.70;;;;;;;16.54;100.00;97565.28;4467559;32;20131;-73
2023/10/22 01:04:23;;;;;;;11.80;5.40;;;;;;;16.54;100.00;97578.50;4469069;32;20088;-74
2023/10/22 01:06:51;;;;;;;19.20;5.15;;;;;;;16.40;100.00;97581.12;4468767;32;20429;-73
2023/10/22 01:09:20;;;;;;;12.90;4.80;;;;;;;16.28;100.00;97582.78;4468881;32;20119;-73
2023/10/22 01:12:00;;;;;;;8.63;4.18;;;;;;;16.30;100.00;97580.72;4468824;32;20097;-73
2023/10/22 01:14:29;;;;;;;17.33;5.20;;;;;;;16.30;100.00;97580.72;4467653;32;20149;-73
2023/10/22 01:16:57;;;;;;;10.70;4.72;;;;;;;16.40;100.00;97575.84;4479550;32;20144;-73
2023/10/22 01:19:25;;;;;;;13.55;4.97;;;;;;;16.33;100.00;97575.03;4484476;31;20110;-73
2023/10/22 01:21:53;;;;;;;16.67;5.22;;;;;;;16.25;100.00;97577.87;4484577;31;20084;-73
2023/10/22 01:24:20;;;;;;;15.93;5.65;;;;;;;16.29;100.00;97571.16;4484425;32;20076;-73
2023/10/22 01:26:48;;;;;;;16.45;4.72;;;;;;;16.32;100.00;97573.41;4484354;32;20096;-73
2023/10/22 01:29:16;;;;;;;15.00;4.70;;;;;;;16.30;100.00;97575.44;4469554;32;20600;-74
2023/10/22 01:31:44;;;;;;;14.00;5.95;;;;;;;16.27;100.00;97570.56;4468624;32;20076;-73
2023/10/22 01:34:12;;;;;;;15.05;5.82;;;;;;;16.29;100.00;97574.63;4468883;32;20123;-73
2023/10/22 01:36:41;;;;;;;11.32;5.05;;;;;;;16.35;100.00;97569.53;4468745;32;20089;-73
2023/10/22 01:39:13;;;;;;;12.15;4.72;;;;;;;16.39;100.00;97560.19;4468638;32;20092;-73
2023/10/22 01:41:41;;;;;;;13.18;5.35;;;;;;;16.47;100.00;97573.19;4467406;32;20148;-74
2023/10/22 01:44:09;;;;;;;12.60;5.12;;;;;;;16.42;100.00;97579.09;4467891;32;20550;-73
2023/10/22 01:46:36;;;;;;;16.55;6.10;;;;;;;16.45;100.00;97583.16;4468405;32;20498;-73
2023/10/22 01:49:04;;;;;;;10.60;5.65;;;;;;;16.50;100.00;97578.06;4468358;32;20616;-74
2023/10/22 01:51:31;;;;;;;13.80;4.93;;;;;;;16.53;100.00;97590.88;4468570;32;20093;-74
2023/10/22 01:54:01;;;;;;;14.93;6.15;;;;;;;16.62;100.00;97583.56;4468561;32;20101;-74
2023/10/22 01:56:31;;;;;;;9.88;5.03;;;;;;;16.47;100.00;97581.97;4468467;32;20081;-74
2023/10/22 01:58:58;;;;;;;12.35;5.50;;;;;;;16.52;100.00;97580.50;4468276;32;20202;-73
2023/10/22 02:01:26;;;;;;;12.32;5.35;;;;;;;16.52;100.00;97593.72;4467249;32;20161;-73
2023/10/22 02:03:55;;;;;;;17.45;5.47;;;;;;;16.51;100.00;97587.63;4468181;32;20100;-73
2023/10/22 02:06:22;;;;;;;10.75;4.78;;;;;;;16.44;100.00;97581.53;4468402;32;20096;-74
2023/10/22 02:08:49;;;;;;;10.27;5.03;;;;;;;16.49;100.00;97587.03;4468066;32;20081;-74
2023/10/22 02:11:18;;;;;;;10.80;4.93;;;;;;;16.56;100.00;97585.19;4468081;32;20437;-74
2023/10/22 02:13:45;;;;;;;16.73;4.75;;;;;;;16.66;100.00;97590.88;4466617;32;20623;-74
2023/10/22 02:16:13;;;;;;;10.55;4.93;;;;;;;16.63;100.00;97585.19;4473966;32;20127;-74
2023/10/22 02:18:40;;;;;;;12.20;5.32;;;;;;;16.60;100.00;97581.12;4483707;32;20108;-73
2023/10/22 02:21:10;;;;;;;17.92;4.68;;;;;;;16.60;100.00;97582.97;4483743;32;20127;-73
2023/10/22 02:23:40;;;;;;;12.68;5.95;;;;;;;16.73;100.00;97590.88;4483669;31;20104;-73
2023/10/22 02:26:08;;;;;;;14.55;5.90;;;;;;;16.70;100.00;97591.28;4483648;32;20147;-74
2023/10/22 02:28:35;;;;;;;14.90;5.10;;;;;;;16.68;100.00;97582.72;4473050;31;20458;-73
2023/10/22 02:31:04;;;;;;;11.93;5.22;;;;;;;16.64;100.00;97576.25;4467796;32;20093;-73
2023/10/22 02:33:33;;;;;;;11.90;4.68;;;;;;;16.61;100.00;97577.47;4467957;32;20080;-73
2023/10/22 02:36:01;;;;;;;10.38;4.80;;;;;;;16.63;100.00;97580.72;4467949;32;20100;-74
2023/10/22 02:38:28;;;;;;;10.57;4.65;;;;;;;16.63;100.00;97574.63;4467622;32;20484;-74
2023/10/22 02:40:56;;;;;;;12.57;4.60;;;;;;;16.72;100.00;97575.22;4467768;32;20494;-74
2023/10/22 02:43:25;;;;;;;10.15;4.65;;;;;;;16.70;100.00;97569.31;4467661;32;20088;-73
2023/10/22 02:45:54;;;;;;;15.18;5.65;;;;;;;16.73;100.00;97564.44;4467747;32;20507;-74
2023/10/22 02:48:23;;;;;;;10.48;5.00;;;;;;;16.68;100.00;97562.41;4467683;32;20096;-74
2023/10/22 02:50:50;;;;;;;12.80;5.05;;;;;;;16.62;100.00;97571.16;4467667;32;20084;-73
2023/10/22 02:53:18;;;;;;;11.12;5.35;;;;;;;16.56;100.00;97571.97;4467558;32;20123;-74
2023/10/22 02:55:46;;;;;;;11.75;5.35;;;;;;;16.54;100.00;97558.16;4468660;32;20279;-74
2023/10/22 02:58:13;;;;;;;8.60;4.57;;;;;;;16.52;100.00;97567.28;4468464;32;20169;-74
2023/10/22 03:00:41;;;;;;;12.60;5.50;;;;;;;16.52;100.00;97569.94;4469719;32;20119;-74
2023/10/22 03:03:09;;;;;;;13.73;5.85;;;;;;;16.63;100.00;97579.91;4469962;32;20100;-73
2023/10/22 03:05:37;;;;;;;16.95;6.53;;;;;;;16.61;100.00;97580.09;4469850;32;20100;-74
2023/10/22 03:08:04;;;;;;;16.33;5.80;;;;;;;16.66;100.00;97579.50;4469801;32;20589;-74
2023/10/22 03:10:36;;;;;;;13.43;6.85;;;;;;;16.60;100.00;97575.03;4469833;32;20157;-74
2023/10/22 03:13:05;;;;;;;22.40;6.80;;;;;;;16.54;100.00;97571.38;4469797;32;20111;-74
2023/10/22 03:15:34;;;;;;;13.68;6.62;;;;;;;16.51;100.00;97574.41;4471224;32;20101;-74
2023/10/22 03:18:02;;;;;;;16.20;7.32;;;;;;;16.63;100.00;97582.53;4485785;31;20454;-74
2023/10/22 03:20:33;;;;;;;16.02;7.47;;;;;;;16.61;100.00;97582.75;4485391;31;20157;-74
2023/10/22 03:23:03;;;;;;;18.00;7.80;;;;;;;16.66;100.00;97580.28;4485564;31;20175;-73
2023/10/22 03:25:32;;;;;;;22.37;8.30;;;;;;;16.65;100.00;97580.50;4485275;31;20441;-73
2023/10/22 03:28:01;;;;;;;32.78;9.35;;;;;;;16.51;100.00;97571.78;4478780;31;20251;-74
2023/10/22 03:30:28;;;;;;;26.37;9.15;;;;;;;16.55;100.00;97577.47;4469535;32;20123;-74
2023/10/22 03:32:56;;;;;;;23.35;9.55;;;;;;;16.55;100.00;97586.22;4469726;32;20088;-73
2023/10/22 03:35:24;;;;;;;37.60;8.68;;;;;;;16.50;100.00;97581.53;4469341;32;20167;-74
2023/10/22 03:37:54;;;;;;;37.72;9.68;;;;;;;16.50;100.00;97584.19;4469715;32;20088;-74
2023/10/22 03:40:21;;;;;;;35.50;8.65;;;;;;;16.49;100.00;97582.56;4469698;32;20093;-73
2023/10/22 03:42:49;;;;;;;66.62;10.50;;;;;;;16.50;100.00;97591.28;4469579;32;20096;-74
2023/10/22 03:45:17;;;;;;;157.23;12.15;;;;;;;16.47;100.00;97597.81;4469579;32;20765;-74
2023/10/22 03:47:45;;;;;;;203.50;11.85;;;;;;;16.45;100.00;97594.53;4469508;32;20122;-74
2023/10/22 03:50:12;;;;;;;141.62;11.95;;;;;;;16.41;100.00;97601.28;4469513;32;20084;-74
2023/10/22 03:52:39;;;;;;;123.45;10.10;;;;;;;16.42;100.00;97607.37;4469416;32;20119;-73
2023/10/22 03:55:10;;;;;;;203.18;11.80;;;;;;;16.40;100.00;97612.84;4469513;32;20468;-73
2023/10/22 03:57:38;;;;;;;273.38;13.93;;;;;;;16.38;100.00;97614.91;4469425;32;20111;-74
2023/10/22 04:00:07;;;;;;;226.88;12.90;;;;;;;16.30;100.00;97617.72;4469373;32;20611;-74
2023/10/22 04:02:39;;;;;;;259.58;12.30;;;;;;;16.39;100.00;97629.72;4469159;32;20118;-74
2023/10/22 04:05:08;;;;;;;283.80;11.77;;;;;;;16.30;100.00;97623.81;4469357;32;20123;-74
2023/10/22 04:07:36;;;;;;;49.17;5.70;;;;;;;16.32;100.00;97621.81;4469006;32;20121;-74
2023/10/22 04:10:09;;;;;;;7.68;3.53;;;;;;;16.31;100.00;97614.87;4469371;32;20210;-73
2023/10/22 04:12:37;;;;;;;;;;;;;;;16.30;100.00;97626.47;4469718;32;20112;-73
2023/10/22 04:15:05;;;;;;;13.07;3.25;;;;;;;16.27;100.00;97632.16;4469149;32;19992;-72
2023/10/22 04:17:35;;;;;;;34.85;3.75;;;;;;;16.20;100.00;97646.37;4483904;32;20461;-74
2023/10/22 04:20:03;;;;;;;35.00;3.35;;;;;;;16.15;100.00;97654.91;4484961;31;20460;-74
2023/10/22 04:22:30;;;;;;;14.63;2.47;;;;;;;15.84;100.00;97658.09;4485017;31;20159;-73
2023/10/22 04:24:58;;;;;;;4.20;1.83;;;;;;;15.35;100.00;97652.78;4484889;31;20113;-73
2023/10/22 04:27:26;;;;;;;4.40;1.85;;;;;;;15.51;100.00;97658.72;4481966;31;20096;-73
2023/10/22 04:29:53;;;;;;;5.15;2.00;;;;;;;15.44;100.00;97663.97;4469228;32;20186;-73
2023/10/22 04:32:20;;;;;;;4.25;1.70;;;;;;;15.27;100.00;97672.19;4469086;32;20093;-73
2023/10/22 04:34:48;;;;;;;4.65;1.58;;;;;;;15.24;100.00;97674.41;4468955;32;20101;-74
2023/10/22 04:37:17;;;;;;;6.03;1.77;;;;;;;15.27;100.00;97674.84;4469549;32;20092;-74
2023/10/22 04:39:45;;;;;;;3.00;1.52;;;;;;;15.24;100.00;97684.97;4468995;32;20152;-74
2023/10/22 04:42:13;;;;;;;6.60;1.80;;;;;;;15.33;100.00;97686.44;4469160;32;20150;-74
2023/10/22 04:44:45;;;;;;;2.97;1.83;;;;;;;15.31;100.00;97688.47;4469017;32;20081;-74
2023/10/22 04:47:13;;;;;;;5.53;1.90;;;;;;;15.25;100.00;97689.25;4469138;32;20568;-74
2023/10/22 04:49:40;;;;;;;3.67;1.48;;;;;;;15.29;100.00;97687.03;4469146;32;20088;-74
2023/10/22 04:52:10;;;;;;;5.90;1.90;;;;;;;15.34;100.00;97688.09;4468975;32;20093;-74
2023/10/22 04:54:38;;;;;;;4.65;1.87;;;;;;;15.38;100.00;97697.25;4469403;32;20146;-74
2023/10/22 04:57:05;;;;;;;4.60;2.10;;;;;;;15.34;100.00;97700.47;4468907;32;20483;-75
2023/10/22 04:59:34;;;;;;;2.72;1.80;;;;;;;15.42;100.00;97708.22;4468998;32;20122;-75
2023/10/22 05:02:02;;;;;;;4.47;1.90;;;;;;;15.42;100.00;97709.03;4469080;32;20119;-75
2023/10/22 05:04:29;;;;;;;3.33;1.75;;;;;;;15.50;100.00;97708.06;4468696;32;20123;-75
2023/10/22 05:06:57;;;;;;;4.37;2.37;;;;;;;15.50;100.00;97717.81;4469178;32;20432;-75
2023/10/22 05:09:24;;;;;;;5.65;2.50;;;;;;;15.57;100.00;97719.47;4468886;32;20084;-75
2023/10/22 05:11:52;;;;;;;6.12;2.92;;;;;;;15.68;100.00;97719.94;4468834;32;20089;-75
2023/10/22 05:14:20;;;;;;;5.18;3.00;;;;;;;15.70;100.00;97729.28;4469128;32;20105;-75
2023/10/22 05:16:48;;;;;;;5.20;2.30;;;;;;;15.81;100.00;97735.88;4478185;32;20134;-75
2023/10/22 05:19:15;;;;;;;7.07;2.92;;;;;;;15.88;100.00;97730.59;4483610;32;20126;-75
2023/10/22 05:21:43;;;;;;;7.18;3.25;;;;;;;15.95;100.00;97736.75;4484418;32;20131;-75
2023/10/22 05:24:10;;;;;;;6.47;2.97;;;;;;;16.00;100.00;97744.87;4484437;32;20093;-76
2023/10/22 05:26:38;;;;;;;4.22;2.78;;;;;;;16.10;100.00;97761.19;4484290;31;20156;-76
2023/10/22 05:29:06;;;;;;;5.45;3.25;;;;;;;16.07;100.00;97758.94;4470910;31;20122;-76
2023/10/22 05:31:34;;;;;;;6.25;2.92;;;;;;;16.13;100.00;97765.25;4467329;32;20477;-76
2023/10/22 05:34:03;;;;;;;8.02;2.72;;;;;;;16.27;100.00;97764.28;4465822;32;82063;-76
2023/10/22 05:36:31;;;;;;;3.58;2.90;;;;;;;16.25;100.00;97770.81;4468582;32;20088;-76
2023/10/22 05:38:59;;;;;;;5.57;3.28;;;;;;;16.21;100.00;97777.50;4468680;32;20096;-76
2023/10/22 05:41:27;;;;;;;5.18;3.00;;;;;;;16.23;100.00;97786.03;4468482;32;20145;-76
2023/10/22 05:43:59;;;;;;;6.30;3.42;;;;;;;16.37;100.00;97793.00;4468685;32;20093;-76
2023/10/22 05:46:31;;;;;;;5.25;3.42;;;;;;;16.39;100.00;97798.91;4468370;32;20088;-76
2023/10/22 05:48:59;;;;;;;9.63;3.40;;;;;;;16.45;100.00;97810.50;4468587;32;20092;-76
2023/10/22 05:51:27;;;;;;;10.02;3.55;;;;;;;16.47;100.00;97821.69;4468367;32;20092;-76
2023/10/22 05:53:54;;;;;;;11.68;3.03;;;;;;;16.47;100.00;97825.16;4468292;32;20399;-77
2023/10/22 05:56:23;;;;;;;8.30;3.22;;;;;;;16.52;100.00;97837.78;4468451;32;20161;-76
2023/10/22 05:58:52;;;;;;;6.95;3.00;;;;;;;16.43;100.00;97839.78;4468475;32;20096;-76
2023/10/22 06:01:19;;;;;;;6.72;2.80;;;;;;;16.48;100.00;97847.12;4468273;32;20115;-76
2023/10/22 06:03:47;;;;;;;6.10;2.70;;;;;;;16.45;100.00;97858.91;4468321;32;20100;-77
2023/10/22 06:06:22;;;;;;;5.57;2.42;;;;;;;16.51;100.00;97852.03;4468174;32;20598;-77
2023/10/22 06:08:49;;;;;;;5.68;2.25;;;;;;;16.47;100.00;97862.19;4468456;32;20111;-76
2023/10/22 06:11:17;;;;;;;4.90;2.55;;;;;;;16.46;100.00;97860.53;4468112;32;20117;-76
2023/10/22 06:13:44;;;;;;;5.95;2.65;;;;;;;16.48;100.00;97858.50;4468135;32;20142;-77
2023/10/22 06:16:11;;;;;;;7.43;2.30;;;;;;;16.40;100.00;97860.53;4473624;32;20453;-77
2023/10/22 06:18:38;;;;;;;6.40;2.40;;;;;;;16.35;100.00;97862.94;4484005;31;20385;-77
2023/10/22 06:21:12;;;;;;;6.30;2.30;;;;;;;16.24;100.00;97861.66;4484009;31;20092;-77
2023/10/22 06:23:40;;;;;;;3.83;2.12;;;;;;;16.32;100.00;97869.41;4483720;31;20339;-77
2023/10/22 06:26:13;;;;;;;6.10;2.53;;;;;;;16.32;100.00;97874.69;4483518;32;20100;-77
2023/10/22 06:28:41;;;;;;;10.25;2.60;;;;;;;16.36;100.00;97885.72;4472939;31;20107;-77
2023/10/22 06:31:13;;;;;;;12.52;2.87;;;;;;;16.37;100.00;97885.50;4469877;32;20088;-77
2023/10/22 06:33:41;;;;;;;6.95;3.00;;;;;;;16.37;100.00;97884.72;4470078;32;20169;-77
2023/10/22 06:36:20;;;;;;;5.07;2.70;;;;;;;16.28;100.00;97895.44;4470037;32;20700;-77
2023/10/22 06:38:49;;;;;;;8.20;3.05;;;;;;;16.31;100.00;97900.31;4470305;32;20100;-77
2023/10/22 06:41:21;;;;;;;9.15;3.08;;;;;;;16.19;100.00;97907.16;4469876;32;20089;-77
2023/10/22 06:43:48;;;;;;;12.25;3.20;;;;;;;16.37;100.00;97909.31;4470102;32;20111;-77
2023/10/22 06:46:19;;;;;;;5.80;2.80;;;;;;;16.38;100.00;97921.53;4469871;32;20169;-77
2023/10/22 06:48:48;;;;;;;4.70;2.90;;;;;;;16.43;100.00;97931.50;4470389;32;20445;-78
2023/10/22 06:51:16;;;;;;;7.95;3.00;;;;;;;16.36;100.00;97934.09;4469961;32;20093;-78
2023/10/22 06:53:49;;;;;;;9.00;3.50;;;;;;;16.28;100.00;97936.91;4469903;32;20162;-77
2023/10/22 06:56:16;;;;;;;6.43;3.65;;;;;;;16.26;100.00;97923.88;4469951;32;20141;-77
2023/10/22 06:59:03;;;;;;;5.05;3.35;;;;;;;16.08;100.00;97927.03;4469879;32;20450;-78
2023/10/22 07:01:30;;;;;;;7.03;4.03;;;;;;;16.23;100.00;97936.66;4469754;32;20096;-78
2023/10/22 07:03:58;;;;;;;6.00;3.85;;;;;;;16.11;100.00;97941.69;4469885;32;20624;-78
2023/10/22 07:06:25;;;;;;;6.35;3.78;;;;;;;16.29;100.00;97949.09;4469736;32;20545;-78
2023/10/22 07:08:52;;;;;;;5.45;3.85;;;;;;;16.38;100.00;97960.34;4469727;32;20153;-78
2023/10/22 07:11:19;;;;;;;6.70;3.70;;;;;;;16.28;100.00;97963.34;4469774;32;20089;-77
2023/10/22 07:13:46;;;;;;;6.18;3.22;;;;;;;16.08;100.00;97963.22;4469768;32;20089;-77
2023/10/22 07:16:24;;;;;;;4.82;3.25;;;;;;;16.09;100.00;97965.66;4476561;32;20613;-77
2023/10/22 07:18:52;;;;;;;6.37;3.40;;;;;;;16.04;100.00;97960.13;4485488;32;20104;-78
2023/10/22 07:21:19;;;;;;;6.80;3.58;;;;;;;15.99;100.00;97972.25;4485275;31;20458;-78
2023/10/22 07:23:47;;;;;;;4.62;3.20;;;;;;;16.04;100.00;97977.81;4485449;32;20084;-78
2023/10/22 07:26:14;;;;;;;4.40;3.10;;;;;;;16.10;100.00;97983.13;4485431;32;20100;-78
2023/10/22 07:28:42;;;;;;;4.95;3.25;;;;;;;16.33;100.00;97982.06;4474386;31;20819;-78
2023/10/22 07:31:11;;;;;;;4.47;3.25;;;;;;;16.43;100.00;97985.19;4468616;32;20154;-77
2023/10/22 07:33:38;;;;;;;5.80;3.05;;;;;;;16.27;100.00;97983.66;4469426;32;20120;-78
2023/10/22 07:36:12;;;;;;;6.57;2.87;;;;;;;16.33;100.00;97987.34;4469547;32;20417;-78
2023/10/22 07:38:40;;;;;;;3.95;2.97;;;;;;;16.40;100.00;97993.50;4469468;32;20171;-77
2023/10/22 07:41:15;;;;;;;5.30;3.00;;;;;;;16.27;100.00;97998.69;4469015;32;20127;-78
2023/10/22 07:43:43;;;;;;;4.40;3.10;;;;;;;16.27;100.00;98011.91;4469540;32;20078;-77
2023/10/22 07:46:14;;;;;;;3.00;2.47;;;;;;;16.19;100.00;98017.34;4469685;32;20097;-77
2023/10/22 07:48:45;;;;;;;8.32;2.55;;;;;;;16.24;100.00;98025.50;4469496;32;20541;-78
2023/10/22 07:51:14;;;;;;;4.57;2.55;;;;;;;16.12;100.00;98028.69;4469625;32;20623;-77
2023/10/22 07:53:41;;;;;;;4.70;2.62;;;;;;;16.17;100.00;98025.47;4469420;32;20130;-77
2023/10/22 07:56:10;;;;;;;4.47;2.53;;;;;;;16.20;100.00;98034.81;4469353;32;20096;-77
2023/10/22 07:58:38;;;;;;;4.55;3.03;;;;;;;16.31;100.00;98040.41;4469502;32;20088;-77
2023/10/22 08:01:06;;;;;;;3.67;2.50;;;;;;;16.28;100.00;98047.91;4469512;32;20096;-77
2023/10/22 08:03:35;;;;;;;4.07;3.03;;;;;;;16.22;100.00;98054.78;4469181;32;20530;-77
2023/10/22 08:06:04;;;;;;;4.65;2.87;;;;;;;16.24;100.00;98049.28;4469453;32;20472;-77
2023/10/22 08:08:31;;;;;;;4.00;2.85;;;;;;;16.21;100.00;98055.78;4469052;32;20119;-77
2023/10/22 08:11:01;;;;;;;4.22;2.53;;;;;;;16.33;100.00;98058.72;4469379;32;20100;-77
2023/10/22 08:13:29;;;;;;;4.65;2.67;;;;;;;16.47;100.00;98062.28;4469387;32;20154;-77
2023/10/22 08:16:02;;;;;;;3.42;2.70;;;;;;;16.61;100.00;98047.34;4473394;32;20190;-77
2023/10/22 08:18:30;;;;;;;5.20;2.70;;;;;;;16.81;100.00;98061.50;4485031;31;20091;-77
2023/10/22 08:21:02;;;;;;;4.50;2.40;;;;;;;16.72;100.00;98065.31;4484979;31;20092;-77
2023/10/22 08:23:30;;;;;;;3.47;2.90;;;;;;;16.82;100.00;98063.13;4484963;31;20096;-77
2023/10/22 08:25:59;;;;;;;5.55;2.72;;;;;;;16.83;100.00;98072.69;4485007;31;20134;-77
2023/10/22 08:28:26;;;;;;;3.92;2.70;;;;;;;16.80;100.00;98073.06;4475395;31;20172;-77
2023/10/22 08:30:56;;;;;;;4.68;2.87;;;;;;;16.94;100.00;98079.31;4469340;32;20150;-76
2023/10/22 08:33:23;;;;;;;4.90;2.67;;;;;;;17.12;100.00;98081.44;4468908;32;20085;-76
2023/10/22 08:35:51;;;;;;;7.47;3.40;;;;;;;17.15;100.00;98070.47;4469053;32;20097;-77
2023/10/22 08:38:19;;;;;;;4.55;2.72;;;;;;;17.28;100.00;98071.53;4469068;32;20101;-76
2023/10/22 08:40:50;;;;;;;5.62;2.53;;;;;;;17.41;100.00;98074.25;4469121;32;20165;-76
2023/10/22 08:43:18;;;;;;;4.10;2.70;;;;;;;17.23;100.00;98084.53;4467986;32;20097;-76
2023/10/22 08:45:48;;;;;;;3.90;2.80;;;;;;;17.16;100.00;98095.91;4469003;32;20096;-76
2023/10/22 08:48:18;;;;;;;4.95;3.08;;;;;;;16.97;100.00;98100.09;4468964;32;20085;-76
2023/10/22 08:50:49;;;;;;;4.82;2.30;;;;;;;16.91;100.00;98115.91;4468933;32;20097;-77
2023/10/22 08:53:16;;;;;;;2.03;1.70;;;;;;;16.76;100.00;98118.63;4467985;32;20497;-76
2023/10/22 08:55:45;;;;;;;2.03;1.75;;;;;;;16.64;100.00;98116.53;4469155;32;20108;-77
2023/10/22 08:58:18;;;;;;;3.58;1.90;;;;;;;16.84;100.00;98115.84;4469071;32;20089;-76
2023/10/22 09:00:49;;;;;;;2.33;1.30;;;;;;;16.71;100.00;98121.84;4469150;32;20107;-76
2023/10/22 09:03:19;;;;;;;1.55;1.20;;;;;;;16.75;100.00;98123.09;4469085;32;20603;-76
2023/10/22 09:05:47;;;;;;;4.20;1.50;;;;;;;16.63;100.00;98130.75;4469318;32;20096;-77
2023/10/22 09:08:43;;;;;;;1.25;1.15;;;;;;;16.81;100.00;98126.81;4468953;32;20073;-77
2023/10/22 09:11:16;;;;;;;1.83;1.15;;;;;;;16.73;100.00;98135.72;4469047;32;20093;-77
2023/10/22 09:13:44;;;;;;;2.47;1.12;;;;;;;16.64;100.00;98131.59;4468880;32;20097;-77
2023/10/22 09:16:29;;;;;;;1.55;1.00;;;;;;;16.52;100.00;98149.78;4474567;32;20146;-77
2023/10/22 09:18:57;;;;;;;1.42;1.20;;;;;;;16.50;100.00;98152.62;4484565;31;20088;-77
2023/10/22 09:21:46;;;;;;;1.73;1.20;;;;;;;16.59;100.00;98158.56;4484649;31;20109;-77
2023/10/22 09:24:13;;;;;;;2.12;1.27;;;;;;;16.48;100.00;98159.91;4484695;31;20085;-77
2023/10/22 09:26:49;;;;;;;2.37;1.00;;;;;;;16.68;100.00;98156.63;4484514;32;20088;-77
2023/10/22 09:29:16;;;;;;;7.93;1.10;;;;;;;16.66;100.00;98156.00;4469806;31;20088;-77
2023/10/22 09:31:51;;;;;;;2.25;1.02;;;;;;;16.70;100.00;98169.66;4469154;32;20549;-77
2023/10/22 09:34:33;;;;;;;4.10;0.88;;;;;;;16.49;100.00;98174.78;4468637;32;20162;-77
2023/10/22 09:37:00;;;;;;;1.85;1.00;;;;;;;16.57;100.00;98180.94;4467684;32;20096;-77
2023/10/22 09:39:43;;;;;;;1.23;0.90;;;;;;;16.84;100.00;98185.44;4468625;32;20080;-77
2023/10/22 09:42:12;;;;;;;4.03;1.27;;;;;;;16.56;100.00;98198.62;4468834;32;20086;-77
2023/10/22 09:44:44;;;;;;;1.50;0.90;;;;;;;16.56;100.00;98193.34;4468756;32;20153;-77
2023/10/22 09:47:19;;;;;;;1.30;1.17;;;;;;;16.60;100.00;98193.78;4468654;32;20492;-77
2023/10/22 09:49:52;;;;;;;1.42;0.90;;;;;;;16.67;100.00;98192.84;4467417;32;20367;-77
2023/10/22 09:52:22;;;;;;;2.35;0.75;;;;;;;16.67;100.00;98199.97;4468710;32;20080;-77
2023/10/22 09:54:50;;;;;;;1.08;0.88;;;;;;;16.63;100.00;98203.97;4468556;32;20097;-77
2023/10/22 09:57:18;;;;;;;1.00;0.80;;;;;;;16.59;100.00;98200.06;4467293;32;20112;-77
2023/10/22 09:59:46;;;;;;;5.07;1.00;;;;;;;16.63;100.00;98202.16;4468284;32;20115;-77
2023/10/22 10:02:23;;;;;;;2.65;1.00;;;;;;;16.47;100.00;98205.88;4468441;32;20100;-78
2023/10/22 10:04:52;;;;;;;1.92;0.80;;;;;;;16.40;100.00;98193.59;4467930;32;20131;-77
2023/10/22 10:07:23;;;;;;;2.15;0.77;;;;;;;16.46;100.00;98200.78;4470130;32;20097;-78
2023/10/22 10:09:52;;;;;;;1.73;1.20;;;;;;;16.26;100.00;98203.22;4470193;32;20085;-78
2023/10/22 10:12:21;;;;;;;1.25;0.85;;;;;;;16.30;100.00;98209.75;4470521;32;20113;-77
2023/10/22 10:14:49;;;;;;;1.45;0.82;;;;;;;16.43;100.00;98212.53;4468953;32;20113;-78
2023/10/22 10:17:19;;;;;;;1.60;0.75;;;;;;;16.64;100.00;98213.56;4482876;32;20134;-78
2023/10/22 10:19:47;;;;;;;0.80;0.60;;;;;;;16.79;100.00;98222.25;4485805;31;20489;-77
2023/10/22 10:22:42;;;;;;;1.33;0.80;;;;;;;16.53;100.00;98219.34;4485789;31;20097;-77
2023/10/22 10:25:32;;;;;;;0.40;0.40;;;;;;;16.57;100.00;98239.13;4485793;31;20495;-78
2023/10/22 10:28:04;;;;;;;0.90;0.70;;;;;;;16.44;100.00;98240.63;4479331;31;20160;-78
2023/10/22 10:30:33;;;;;;;0.30;0.30;;;;;;;16.21;100.00;98237.31;4470016;32;20114;-77
2023/10/22 10:33:02;;;;;;;2.15;0.50;;;;;;;15.92;100.00;98228.44;4470156;32;20434;-77
2023/10/22 10:35:49;;;;;;;0.93;0.50;;;;;;;16.17;100.00;98230.75;4469834;32;20119;-77
2023/10/22 10:38:18;;;;;;;1.80;0.40;;;;;;;16.27;100.00;98247.16;4470165;32;20080;-78
2023/10/22 10:40:51;;;;;;;1.75;0.30;;;;;;;15.87;100.00;98236.12;4469868;32;20115;-78
2023/10/22 10:43:18;;;;;;;0.50;0.50;;;;;;;15.89;100.00;98250.75;4470092;32;20103;-77
2023/10/22 10:46:23;;;;;;;0.50;0.50;;;;;;;15.65;100.00;98253.66;4469898;32;20455;-77
2023/10/22 10:48:52;;;;;;;2.10;0.77;;;;;;;15.41;100.00;98248.47;4470053;32;20131;-78
2023/10/22 10:51:21;;;;;;;3.37;0.70;;;;;;;15.35;100.00;98243.09;4469875;32;20101;-77
2023/10/22 10:54:03;;;;;;;0.73;0.73;;;;;;;15.47;100.00;98241.63;4470051;32;20515;-78
2023/10/22 10:56:49;;;;;;;0.73;0.57;;;;;;;15.66;100.00;98244.75;4469964;32;20116;-78
2023/10/22 10:59:43;;;;;;;0.70;0.60;;;;;;;15.76;100.00;98254.03;4469785;32;20145;-78
2023/10/22 11:02:14;;;;;;;1.37;0.60;;;;;;;15.85;100.00;98256.59;4468591;32;20096;-78
2023/10/22 11:04:45;;;;;;;2.65;0.85;;;;;;;15.85;100.00;98264.53;4469757;32;20225;-78
2023/10/22 11:07:13;;;;;;;2.45;0.73;;;;;;;15.93;100.00;98267.09;4469994;32;20544;-78
2023/10/22 11:09:46;;;;;;;0.85;0.70;;;;;;;15.91;100.00;98254.06;4469652;32;20080;-77
2023/10/22 11:12:14;;;;;;;2.05;0.95;;;;;;;15.85;100.00;98256.59;4469890;32;20093;-78
2023/10/22 11:14:41;;;;;;;1.65;0.70;;;;;;;15.97;100.00;98252.47;4469823;32;20485;-78
2023/10/22 11:17:08;;;;;;;1.73;0.70;;;;;;;16.34;100.00;98239.31;4480894;32;20124;-78
2023/10/22 11:19:36;;;;;;;0.80;0.70;;;;;;;16.47;100.00;98253.47;4485605;32;20119;-78
2023/10/22 11:22:04;;;;;;;1.35;0.73;;;;;;;16.44;100.00;98248.56;4485290;32;20080;-78
2023/10/22 11:24:34;;;;;;;0.88;0.70;;;;;;;16.45;100.00;98244.09;4485125;32;20171;-78
2023/10/22 11:27:03;;;;;;;2.37;0.60;;;;;;;16.79;100.00;98240.75;4484032;32;20131;-77
2023/10/22 11:29:44;;;;;;;1.75;0.62;;;;;;;16.66;100.00;98244.09;4467894;32;20089;-78
2023/10/22 11:32:16;;;;;;;1.92;0.80;;;;;;;16.68;100.00;98246.53;4469748;32;20111;-78